sensor_id;sensor_type;location;lat;lon;timestamp;pressure;altitude;pressure_sealevel;temperature;humidity
53900;BME280;40509;32.858;-116.858;2023-07-13T00:01:09;97872.06;;;26.90;38.29
53900;BME280;40509;32.858;-116.858;2023-07-13T00:03:35;97877.81;;;27.16;37.70
53900;BME280;40509;32.858;-116.858;2023-07-13T00:06:02;97879.91;;;27.20;37.78
53900;BME280;40509;32.858;-116.858;2023-07-13T00:08:30;97872.91;;;27.13;38.69
53900;BME280;40509;32.858;-116.858;2023-07-13T00:10:59;97877.72;;;27.24;38.30
53900;BME280;40509;32.858;-116.858;2023-07-13T00:13:27;97875.94;;;27.31;38.35
53900;BME280;40509;32.858;-116.858;2023-07-13T00:15:54;97862.38;;;27.41;38.56
53900;BME280;40509;32.858;-116.858;2023-07-13T00:18:22;97866.94;;;27.47;38.55
53900;BME280;40509;32.858;-116.858;2023-07-13T00:20:49;97872.84;;;27.49;38.24
53900;BME280;40509;32.858;-116.858;2023-07-13T00:23:16;97865.91;;;27.48;38.72
53900;BME280;40509;32.858;-116.858;2023-07-13T00:25:43;97869.81;;;27.52;38.56
53900;BME280;40509;32.858;-116.858;2023-07-13T00:28:10;97864.75;;;27.57;38.96
53900;BME280;40509;32.858;-116.858;2023-07-13T00:30:37;97859.25;;;27.59;38.93
53900;BME280;40509;32.858;-116.858;2023-07-13T00:33:04;97858.25;;;27.60;39.05
53900;BME280;40509;32.858;-116.858;2023-07-13T00:35:31;97861.16;;;27.65;38.88
53900;BME280;40509;32.858;-116.858;2023-07-13T00:37:58;97859.09;;;27.67;39.20
53900;BME280;40509;32.858;-116.858;2023-07-13T00:40:25;97846.69;;;27.68;38.74
53900;BME280;40509;32.858;-116.858;2023-07-13T00:42:52;97857.09;;;27.69;39.36
53900;BME280;40509;32.858;-116.858;2023-07-13T00:47:46;97857.53;;;27.73;39.23
53900;BME280;40509;32.858;-116.858;2023-07-13T00:50:14;97851.84;;;27.76;39.60
53900;BME280;40509;32.858;-116.858;2023-07-13T00:52:45;97847.34;;;27.76;39.70
53900;BME280;40509;32.858;-116.858;2023-07-13T00:55:13;97856.34;;;27.75;39.76
53900;BME280;40509;32.858;-116.858;2023-07-13T00:57:41;97854.09;;;27.79;39.87
53900;BME280;40509;32.858;-116.858;2023-07-13T01:00:09;97851.06;;;27.82;39.58
53900;BME280;40509;32.858;-116.858;2023-07-13T01:02:37;97853.53;;;27.84;39.68
53900;BME280;40509;32.858;-116.858;2023-07-13T01:05:11;97851.69;;;27.84;39.97
53900;BME280;40509;32.858;-116.858;2023-07-13T01:07:40;97854.97;;;27.86;39.65
53900;BME280;40509;32.858;-116.858;2023-07-13T01:10:07;97859.44;;;27.86;40.01
53900;BME280;40509;32.858;-116.858;2023-07-13T01:12:35;97860.91;;;27.88;39.74
53900;BME280;40509;32.858;-116.858;2023-07-13T01:15:02;97855.59;;;27.88;40.06
53900;BME280;40509;32.858;-116.858;2023-07-13T01:17:30;97856.41;;;27.89;40.03
53900;BME280;40509;32.858;-116.858;2023-07-13T01:19:58;97858.25;;;27.88;40.48
53900;BME280;40509;32.858;-116.858;2023-07-13T01:22:26;97856.84;;;27.92;40.04
53900;BME280;40509;32.858;-116.858;2023-07-13T01:24:53;97864.59;;;27.94;40.02
53900;BME280;40509;32.858;-116.858;2023-07-13T01:27:21;97868.69;;;27.97;40.23
53900;BME280;40509;32.858;-116.858;2023-07-13T01:29:52;97865.03;;;27.98;40.20
53900;BME280;40509;32.858;-116.858;2023-07-13T01:32:21;97858.09;;;27.97;40.32
53900;BME280;40509;32.858;-116.858;2023-07-13T01:34:50;97862.38;;;27.98;40.85
53900;BME280;40509;32.858;-116.858;2023-07-13T01:37:21;97865.03;;;27.98;40.43
53900;BME280;40509;32.858;-116.858;2023-07-13T01:39:48;97867.34;;;28.01;40.60
53900;BME280;40509;32.858;-116.858;2023-07-13T01:42:14;97862.66;;;28.03;40.53
53900;BME280;40509;32.858;-116.858;2023-07-13T01:44:41;97862.66;;;28.03;40.65
53900;BME280;40509;32.858;-116.858;2023-07-13T01:47:09;97860.63;;;28.05;41.07
53900;BME280;40509;32.858;-116.858;2023-07-13T01:49:37;97862.06;;;28.07;40.97
53900;BME280;40509;32.858;-116.858;2023-07-13T01:52:04;97859.41;;;28.07;40.96
53900;BME280;40509;32.858;-116.858;2023-07-13T01:54:31;97861.88;;;28.09;40.86
53900;BME280;40509;32.858;-116.858;2023-07-13T01:57:00;97855.75;;;28.08;40.71
53900;BME280;40509;32.858;-116.858;2023-07-13T01:59:27;97852.91;;;28.10;40.81
53900;BME280;40509;32.858;-116.858;2023-07-13T02:01:54;97847.59;;;28.10;41.19
53900;BME280;40509;32.858;-116.858;2023-07-13T02:04:21;97859.66;;;28.13;41.37
53900;BME280;40509;32.858;-116.858;2023-07-13T02:06:48;97857.81;;;28.13;41.19
53900;BME280;40509;32.858;-116.858;2023-07-13T02:09:16;97858.84;;;28.12;41.04
53900;BME280;40509;32.858;-116.858;2023-07-13T02:11:42;97865.97;;;28.12;41.36
53900;BME280;40509;32.858;-116.858;2023-07-13T02:14:09;97863.09;;;28.13;41.34
53900;BME280;40509;32.858;-116.858;2023-07-13T02:16:36;97868.41;;;28.13;41.34
53900;BME280;40509;32.858;-116.858;2023-07-13T02:19:04;97857.00;;;28.13;41.26
53900;BME280;40509;32.858;-116.858;2023-07-13T02:21:32;97859.44;;;28.14;41.61
53900;BME280;40509;32.858;-116.858;2023-07-13T02:23:59;97864.75;;;28.14;41.50
53900;BME280;40509;32.858;-116.858;2023-07-13T02:26:26;97865.41;;;28.16;41.71
53900;BME280;40509;32.858;-116.858;2023-07-13T02:28:53;97866.41;;;28.15;41.50
53900;BME280;40509;32.858;-116.858;2023-07-13T02:31:20;97874.78;;;28.19;41.60
53900;BME280;40509;32.858;-116.858;2023-07-13T02:33:47;97872.13;;;28.19;41.64
53900;BME280;40509;32.858;-116.858;2023-07-13T02:36:14;97882.72;;;28.19;41.57
53900;BME280;40509;32.858;-116.858;2023-07-13T02:38:44;97884.59;;;28.18;42.03
53900;BME280;40509;32.858;-116.858;2023-07-13T02:41:15;97885.22;;;28.20;41.57
53900;BME280;40509;32.858;-116.858;2023-07-13T02:43:42;97888.69;;;28.21;41.74
53900;BME280;40509;32.858;-116.858;2023-07-13T02:46:09;97882.56;;;28.20;41.75
53900;BME280;40509;32.858;-116.858;2023-07-13T02:48:37;97890.53;;;28.20;41.84
53900;BME280;40509;32.858;-116.858;2023-07-13T02:51:04;97889.69;;;28.20;42.04
53900;BME280;40509;32.858;-116.858;2023-07-13T02:53:31;97901.94;;;28.21;41.75
53900;BME280;40509;32.858;-116.858;2023-07-13T02:55:58;97897.84;;;28.18;41.94
53900;BME280;40509;32.858;-116.858;2023-07-13T02:58:25;97897.44;;;28.21;42.24
53900;BME280;40509;32.858;-116.858;2023-07-13T03:00:52;97891.34;;;28.21;41.97
53900;BME280;40509;32.858;-116.858;2023-07-13T03:03:20;97894.44;;;28.24;42.23
53900;BME280;40509;32.858;-116.858;2023-07-13T03:05:48;97908.91;;;28.22;42.12
53900;BME280;40509;32.858;-116.858;2023-07-13T03:08:28;97908.06;;;28.21;42.00
53900;BME280;40509;32.858;-116.858;2023-07-13T03:11:02;97908.06;;;28.21;42.01
53900;BME280;40509;32.858;-116.858;2023-07-13T03:13:31;97903.59;;;28.22;42.40
53900;BME280;40509;32.858;-116.858;2023-07-13T03:15:59;97919.53;;;28.22;42.37
53900;BME280;40509;32.858;-116.858;2023-07-13T03:18:27;97916.47;;;28.25;42.44
53900;BME280;40509;32.858;-116.858;2023-07-13T03:20:54;97923.19;;;28.21;42.29
53900;BME280;40509;32.858;-116.858;2023-07-13T03:23:21;97923.78;;;28.23;42.50
53900;BME280;40509;32.858;-116.858;2023-07-13T03:25:48;97922.38;;;28.20;42.41
53900;BME280;40509;32.858;-116.858;2023-07-13T03:28:15;97926.66;;;28.21;42.51
53900;BME280;40509;32.858;-116.858;2023-07-13T03:30:42;97923.78;;;28.23;42.62
53900;BME280;40509;32.858;-116.858;2023-07-13T03:33:09;97924.63;;;28.23;42.64
53900;BME280;40509;32.858;-116.858;2023-07-13T03:35:39;97925.84;;;28.21;42.43
53900;BME280;40509;32.858;-116.858;2023-07-13T03:38:07;97933.81;;;28.21;42.64
53900;BME280;40509;32.858;-116.858;2023-07-13T03:40:33;97936.06;;;28.24;42.69
53900;BME280;40509;32.858;-116.858;2023-07-13T03:43:01;97934.59;;;28.21;42.57
53900;BME280;40509;32.858;-116.858;2023-07-13T03:45:29;97936.66;;;28.19;42.65
53900;BME280;40509;32.858;-116.858;2023-07-13T03:47:56;97940.13;;;28.20;43.19
53900;BME280;40509;32.858;-116.858;2023-07-13T03:50:25;97942.97;;;28.18;43.22
53900;BME280;40509;32.858;-116.858;2023-07-13T03:52:51;97942.78;;;28.20;43.17
53900;BME280;40509;32.858;-116.858;2023-07-13T03:55:19;97939.31;;;28.19;43.20
53900;BME280;40509;32.858;-116.858;2023-07-13T03:57:46;97943.78;;;28.19;42.97
53900;BME280;40509;32.858;-116.858;2023-07-13T04:00:14;97948.06;;;28.20;42.85
53900;BME280;40509;32.858;-116.858;2023-07-13T04:02:42;97954.63;;;28.24;42.89
53900;BME280;40509;32.858;-116.858;2023-07-13T04:05:09;97950.59;;;28.28;42.97
53900;BME280;40509;32.858;-116.858;2023-07-13T04:07:35;97954.84;;;28.22;43.40
53900;BME280;40509;32.858;-116.858;2023-07-13T04:10:03;97959.94;;;28.24;42.99
53900;BME280;40509;32.858;-116.858;2023-07-13T04:12:30;97966.09;;;28.24;42.87
53900;BME280;40509;32.858;-116.858;2023-07-13T04:14:57;97970.19;;;28.27;43.36
53900;BME280;40509;32.858;-116.858;2023-07-13T04:17:24;97971.56;;;28.23;43.18
53900;BME280;40509;32.858;-116.858;2023-07-13T04:19:51;97976.72;;;28.24;43.14
53900;BME280;40509;32.858;-116.858;2023-07-13T04:22:18;97972.81;;;28.20;43.02
53900;BME280;40509;32.858;-116.858;2023-07-13T04:24:45;97981.63;;;28.27;43.13
53900;BME280;40509;32.858;-116.858;2023-07-13T04:27:12;97978.53;;;28.24;43.24
53900;BME280;40509;32.858;-116.858;2023-07-13T04:29:39;97982.59;;;28.20;43.10
53900;BME280;40509;32.858;-116.858;2023-07-13T04:32:06;97983.84;;;28.24;42.94
53900;BME280;40509;32.858;-116.858;2023-07-13T04:34:33;97989.78;;;28.26;43.50
53900;BME280;40509;32.858;-116.858;2023-07-13T04:37:01;97992.84;;;28.30;43.28
53900;BME280;40509;32.858;-116.858;2023-07-13T04:39:27;97997.69;;;28.19;43.85
53900;BME280;40509;32.858;-116.858;2023-07-13T04:41:54;98000.59;;;28.24;43.18
53900;BME280;40509;32.858;-116.858;2023-07-13T04:44:22;98012.84;;;28.25;43.11
53900;BME280;40509;32.858;-116.858;2023-07-13T04:46:49;98013.03;;;28.24;43.44
53900;BME280;40509;32.858;-116.858;2023-07-13T04:49:16;98005.28;;;28.22;43.49
53900;BME280;40509;32.858;-116.858;2023-07-13T04:51:42;98009.13;;;28.20;43.82
53900;BME280;40509;32.858;-116.858;2023-07-13T04:54:09;98010.13;;;28.19;43.69
53900;BME280;40509;32.858;-116.858;2023-07-13T04:56:36;98013.81;;;28.18;43.71
53900;BME280;40509;32.858;-116.858;2023-07-13T04:59:03;98010.97;;;28.19;43.88
53900;BME280;40509;32.858;-116.858;2023-07-13T05:01:30;98013.63;;;28.19;43.82
53900;BME280;40509;32.858;-116.858;2023-07-13T05:03:57;98015.63;;;28.17;44.16
53900;BME280;40509;32.858;-116.858;2023-07-13T05:06:25;98019.34;;;28.16;44.05
53900;BME280;40509;32.858;-116.858;2023-07-13T05:08:52;98028.09;;;28.17;43.85
53900;BME280;40509;32.858;-116.858;2023-07-13T05:11:19;98029.94;;;28.16;43.84
53900;BME280;40509;32.858;-116.858;2023-07-13T05:13:46;98027.91;;;28.18;44.02
53900;BME280;40509;32.858;-116.858;2023-07-13T05:16:13;98021.16;;;28.16;44.15
53900;BME280;40509;32.858;-116.858;2023-07-13T05:18:40;98026.44;;;28.16;43.59
53900;BME280;40509;32.858;-116.858;2023-07-13T05:21:09;98024.81;;;28.15;44.08
53900;BME280;40509;32.858;-116.858;2023-07-13T05:23:36;98029.31;;;28.14;43.68
53900;BME280;40509;32.858;-116.858;2023-07-13T05:26:04;98027.66;;;28.13;43.63
53900;BME280;40509;32.858;-116.858;2023-07-13T05:28:31;98031.16;;;28.14;43.89
53900;BME280;40509;32.858;-116.858;2023-07-13T05:30:58;98031.34;;;28.12;43.69
53900;BME280;40509;32.858;-116.858;2023-07-13T05:33:25;98032.34;;;28.11;44.03
53900;BME280;40509;32.858;-116.858;2023-07-13T05:35:52;98042.75;;;28.13;43.81
53900;BME280;40509;32.858;-116.858;2023-07-13T05:38:19;98035.00;;;28.11;44.28
53900;BME280;40509;32.858;-116.858;2023-07-13T05:40:46;98035.81;;;28.12;43.82
53900;BME280;40509;32.858;-116.858;2023-07-13T05:43:13;98045.63;;;28.11;43.70
53900;BME280;40509;32.858;-116.858;2023-07-13T05:45:41;98048.28;;;28.11;43.86
53900;BME280;40509;32.858;-116.858;2023-07-13T05:48:07;98043.56;;;28.13;43.66
53900;BME280;40509;32.858;-116.858;2023-07-13T05:50:35;98042.56;;;28.14;43.75
53900;BME280;40509;32.858;-116.858;2023-07-13T05:53:01;98045.41;;;28.13;44.30
53900;BME280;40509;32.858;-116.858;2023-07-13T05:55:30;98041.97;;;28.12;44.49
53900;BME280;40509;32.858;-116.858;2023-07-13T05:58:02;98047.44;;;28.10;44.01
53900;BME280;40509;32.858;-116.858;2023-07-13T06:00:29;98053.56;;;28.11;44.15
53900;BME280;40509;32.858;-116.858;2023-07-13T06:02:56;98049.28;;;28.10;44.58
53900;BME280;40509;32.858;-116.858;2023-07-13T06:05:24;98050.94;;;28.11;44.43
53900;BME280;40509;32.858;-116.858;2023-07-13T06:07:51;98044.97;;;28.09;44.09
53900;BME280;40509;32.858;-116.858;2023-07-13T06:10:18;98051.72;;;28.12;44.31
53900;BME280;40509;32.858;-116.858;2023-07-13T06:12:45;98045.41;;;28.13;44.42
53900;BME280;40509;32.858;-116.858;2023-07-13T06:15:12;98049.72;;;28.14;44.08
53900;BME280;40509;32.858;-116.858;2023-07-13T06:17:39;98048.06;;;28.13;44.02
53900;BME280;40509;32.858;-116.858;2023-07-13T06:20:06;98061.53;;;28.11;44.54
53900;BME280;40509;32.858;-116.858;2023-07-13T06:22:33;98051.94;;;28.10;44.48
53900;BME280;40509;32.858;-116.858;2023-07-13T06:25:01;98049.28;;;28.10;44.32
53900;BME280;40509;32.858;-116.858;2023-07-13T06:27:27;98041.50;;;28.08;44.44
53900;BME280;40509;32.858;-116.858;2023-07-13T06:29:54;98049.66;;;28.07;44.07
53900;BME280;40509;32.858;-116.858;2023-07-13T06:32:21;98047.00;;;28.07;44.17
53900;BME280;40509;32.858;-116.858;2023-07-13T06:34:48;98049.66;;;28.07;44.16
53900;BME280;40509;32.858;-116.858;2023-07-13T06:37:15;98046.38;;;28.05;44.66
53900;BME280;40509;32.858;-116.858;2023-07-13T06:39:42;98052.94;;;28.09;44.13
53900;BME280;40509;32.858;-116.858;2023-07-13T06:42:09;98056.59;;;28.08;44.42
53900;BME280;40509;32.858;-116.858;2023-07-13T06:44:36;98052.31;;;28.07;44.20
53900;BME280;40509;32.858;-116.858;2023-07-13T06:47:03;98051.28;;;28.08;44.28
53900;BME280;40509;32.858;-116.858;2023-07-13T06:49:30;98052.31;;;28.07;44.29
53900;BME280;40509;32.858;-116.858;2023-07-13T06:51:56;98052.13;;;28.08;44.14
53900;BME280;40509;32.858;-116.858;2023-07-13T06:54:24;98050.66;;;28.06;44.46
53900;BME280;40509;32.858;-116.858;2023-07-13T06:56:51;98050.41;;;28.01;44.74
53900;BME280;40509;32.858;-116.858;2023-07-13T06:59:18;98048.94;;;27.98;44.33
53900;BME280;40509;32.858;-116.858;2023-07-13T07:01:45;98053.63;;;27.96;44.63
53900;BME280;40509;32.858;-116.858;2023-07-13T07:04:12;98055.88;;;27.99;44.35
53900;BME280;40509;32.858;-116.858;2023-07-13T07:06:39;98056.88;;;27.98;44.58
53900;BME280;40509;32.858;-116.858;2023-07-13T07:09:06;98059.72;;;27.97;44.16
53900;BME280;40509;32.858;-116.858;2023-07-13T07:11:32;98057.09;;;27.97;44.30
53900;BME280;40509;32.858;-116.858;2023-07-13T07:13:59;98058.09;;;27.96;44.38
53900;BME280;40509;32.858;-116.858;2023-07-13T07:16:26;98058.28;;;27.94;44.16
53900;BME280;40509;32.858;-116.858;2023-07-13T07:18:53;98054.81;;;27.93;44.12
53900;BME280;40509;32.858;-116.858;2023-07-13T07:21:20;98051.53;;;27.91;44.28
53900;BME280;40509;32.858;-116.858;2023-07-13T07:23:49;98054.16;;;27.91;44.36
53900;BME280;40509;32.858;-116.858;2023-07-13T07:26:16;98059.47;;;27.91;44.17
53900;BME280;40509;32.858;-116.858;2023-07-13T07:28:43;98065.81;;;27.90;44.51
53900;BME280;40509;32.858;-116.858;2023-07-13T07:31:09;98058.84;;;27.89;44.23
53900;BME280;40509;32.858;-116.858;2023-07-13T07:33:36;98057.03;;;27.90;44.37
53900;BME280;40509;32.858;-116.858;2023-07-13T07:36:03;98055.22;;;27.90;44.49
53900;BME280;40509;32.858;-116.858;2023-07-13T07:38:30;98046.59;;;27.88;44.04
53900;BME280;40509;32.858;-116.858;2023-07-13T07:40:57;98046.59;;;27.88;44.43
53900;BME280;40509;32.858;-116.858;2023-07-13T07:43:24;98053.75;;;27.88;44.31
53900;BME280;40509;32.858;-116.858;2023-07-13T07:45:50;98049.44;;;27.87;44.41
53900;BME280;40509;32.858;-116.858;2023-07-13T07:48:17;98044.75;;;27.89;44.43
53900;BME280;40509;32.858;-116.858;2023-07-13T07:50:44;98047.41;;;27.89;43.96
53900;BME280;40509;32.858;-116.858;2023-07-13T07:53:11;98050.91;;;27.89;44.43
53900;BME280;40509;32.858;-116.858;2023-07-13T07:55:38;98039.84;;;27.86;44.41
53900;BME280;40509;32.858;-116.858;2023-07-13T07:58:05;98038.38;;;27.83;44.40
53900;BME280;40509;32.858;-116.858;2023-07-13T08:00:32;98032.47;;;27.81;44.38
53900;BME280;40509;32.858;-116.858;2023-07-13T08:02:59;98044.88;;;27.81;44.05
53900;BME280;40509;32.858;-116.858;2023-07-13T08:05:26;98034.28;;;27.81;43.94
53900;BME280;40509;32.858;-116.858;2023-07-13T08:07:53;98039.78;;;27.79;44.16
53900;BME280;40509;32.858;-116.858;2023-07-13T08:10:20;98040.78;;;27.78;44.03
53900;BME280;40509;32.858;-116.858;2023-07-13T08:12:47;98035.47;;;27.78;43.98
53900;BME280;40509;32.858;-116.858;2023-07-13T08:15:15;98035.13;;;27.81;43.79
53900;BME280;40509;32.858;-116.858;2023-07-13T08:17:42;98037.13;;;27.79;43.84
53900;BME280;40509;32.858;-116.858;2023-07-13T08:20:09;98036.31;;;27.79;43.85
53900;BME280;40509;32.858;-116.858;2023-07-13T08:22:36;98035.13;;;27.81;44.19
53900;BME280;40509;32.858;-116.858;2023-07-13T08:25:03;98033.00;;;27.76;44.14
53900;BME280;40509;32.858;-116.858;2023-07-13T08:27:30;98031.19;;;27.77;43.94
53900;BME280;40509;32.858;-116.858;2023-07-13T08:29:57;98025.91;;;27.77;43.83
53900;BME280;40509;32.858;-116.858;2023-07-13T08:32:24;98024.00;;;27.71;43.78
53900;BME280;40509;32.858;-116.858;2023-07-13T08:34:51;98030.56;;;27.75;44.18
53900;BME280;40509;32.858;-116.858;2023-07-13T08:37:18;98021.34;;;27.71;44.17
53900;BME280;40509;32.858;-116.858;2023-07-13T08:39:45;98015.84;;;27.72;43.72
53900;BME280;40509;32.858;-116.858;2023-07-13T08:42:14;98020.94;;;27.74;44.22
53900;BME280;40509;32.858;-116.858;2023-07-13T08:45:04;98016.03;;;27.71;44.08
53900;BME280;40509;32.858;-116.858;2023-07-13T08:47:35;98018.69;;;27.71;43.58
53900;BME280;40509;32.858;-116.858;2023-07-13T08:50:04;98019.06;;;27.68;43.91
53900;BME280;40509;32.858;-116.858;2023-07-13T08:52:36;98015.84;;;27.72;43.98
53900;BME280;40509;32.858;-116.858;2023-07-13T08:57:40;98007.19;;;27.64;43.80
53900;BME280;40509;32.858;-116.858;2023-07-13T09:00:11;98016.59;;;27.66;43.82
53900;BME280;40509;32.858;-116.858;2023-07-13T09:05:12;98008.84;;;27.65;43.68
53900;BME280;40509;32.858;-116.858;2023-07-13T09:07:43;98002.78;;;27.71;43.52
53900;BME280;40509;32.858;-116.858;2023-07-13T09:10:14;98009.66;;;27.65;44.02
53900;BME280;40509;32.858;-116.858;2023-07-13T09:17:50;97998.78;;;27.60;43.98
53900;BME280;40509;32.858;-116.858;2023-07-13T09:20:31;98002.44;;;27.59;44.14
53900;BME280;40509;32.858;-116.858;2023-07-13T09:23:01;97991.09;;;27.65;43.82
53900;BME280;40509;32.858;-116.858;2023-07-13T09:25:35;97994.56;;;27.66;43.37
53900;BME280;40509;32.858;-116.858;2023-07-13T09:28:13;97989.19;;;27.59;43.91
53900;BME280;40509;32.858;-116.858;2023-07-13T09:33:20;97979.78;;;27.56;44.00
53900;BME280;40509;32.858;-116.858;2023-07-13T09:35:48;97985.72;;;27.58;43.69
53900;BME280;40509;32.858;-116.858;2023-07-13T09:38:17;97987.72;;;27.56;43.68
53900;BME280;40509;32.858;-116.858;2023-07-13T09:43:30;97974.84;;;27.53;43.85
53900;BME280;40509;32.858;-116.858;2023-07-13T09:45:57;97975.69;;;27.54;43.61
53900;BME280;40509;32.858;-116.858;2023-07-13T09:48:24;97971.00;;;27.56;43.36
53900;BME280;40509;32.858;-116.858;2023-07-13T09:50:54;97972.47;;;27.58;43.83
53900;BME280;40509;32.858;-116.858;2023-07-13T09:53:22;97971.88;;;27.63;43.44
53900;BME280;40509;32.858;-116.858;2023-07-13T09:55:49;97972.47;;;27.58;43.31
53900;BME280;40509;32.858;-116.858;2023-07-13T09:58:18;97970.00;;;27.57;43.87
53900;BME280;40509;32.858;-116.858;2023-07-13T10:01:07;97967.91;;;27.74;43.23
53900;BME280;40509;32.858;-116.858;2023-07-13T10:03:34;97960.59;;;27.54;43.33
53900;BME280;40509;32.858;-116.858;2023-07-13T10:06:11;97963.63;;;27.51;43.65
53900;BME280;40509;32.858;-116.858;2023-07-13T10:08:38;97961.41;;;27.55;43.56
53900;BME280;40509;32.858;-116.858;2023-07-13T10:11:12;97958.75;;;27.55;43.86
53900;BME280;40509;32.858;-116.858;2023-07-13T10:16:33;97956.28;;;27.53;43.72
53900;BME280;40509;32.858;-116.858;2023-07-13T10:19:02;97953.50;;;27.62;43.52
53900;BME280;40509;32.858;-116.858;2023-07-13T10:21:32;97947.06;;;27.49;43.64
53900;BME280;40509;32.858;-116.858;2023-07-13T10:26:33;97949.47;;;27.44;43.85
53900;BME280;40509;32.858;-116.858;2023-07-13T10:29:09;97948.34;;;27.53;43.35
53900;BME280;40509;32.858;-116.858;2023-07-13T10:31:38;97950.66;;;27.41;43.54
53900;BME280;40509;32.858;-116.858;2023-07-13T10:34:08;97949.72;;;27.49;43.14
53900;BME280;40509;32.858;-116.858;2023-07-13T10:36:39;97951.31;;;27.43;43.56
53900;BME280;40509;32.858;-116.858;2023-07-13T10:39:09;97945.00;;;27.45;43.46
53900;BME280;40509;32.858;-116.858;2023-07-13T10:41:40;97941.53;;;27.44;43.64
53900;BME280;40509;32.858;-116.858;2023-07-13T10:44:12;97939.50;;;27.46;43.58
53900;BME280;40509;32.858;-116.858;2023-07-13T10:46:43;97947.53;;;27.53;43.16
53900;BME280;40509;32.858;-116.858;2023-07-13T10:49:11;97945.44;;;27.48;43.66
53900;BME280;40509;32.858;-116.858;2023-07-13T10:51:38;97940.31;;;27.47;43.70
53900;BME280;40509;32.858;-116.858;2023-07-13T10:56:40;97931.31;;;27.41;43.27
53900;BME280;40509;32.858;-116.858;2023-07-13T10:59:12;97937.25;;;27.43;43.60
53900;BME280;40509;32.858;-116.858;2023-07-13T11:04:27;97932.31;;;27.40;43.70
53900;BME280;40509;32.858;-116.858;2023-07-13T11:06:59;97935.16;;;27.38;43.42
53900;BME280;40509;32.858;-116.858;2023-07-13T11:09:40;97923.94;;;27.36;43.42
53900;BME280;40509;32.858;-116.858;2023-07-13T11:12:26;97925.09;;;27.34;43.33
53900;BME280;40509;32.858;-116.858;2023-07-13T11:17:35;97923.53;;;27.39;43.51
53900;BME280;40509;32.858;-116.858;2023-07-13T11:30:46;97924.44;;;27.32;43.29
53900;BME280;40509;32.858;-116.858;2023-07-13T11:36:00;97920.28;;;27.22;43.09
53900;BME280;40509;32.858;-116.858;2023-07-13T11:41:00;97922.75;;;27.24;43.53
53900;BME280;40509;32.858;-116.858;2023-07-13T11:43:30;97921.50;;;27.20;43.26
53900;BME280;40509;32.858;-116.858;2023-07-13T11:45:57;97920.47;;;27.21;43.06
53900;BME280;40509;32.858;-116.858;2023-07-13T11:48:27;97921.84;;;27.17;43.06
53900;BME280;40509;32.858;-116.858;2023-07-13T11:51:04;97925.97;;;27.19;42.97
53900;BME280;40509;32.858;-116.858;2023-07-13T11:53:38;97920.84;;;27.18;43.07
53900;BME280;40509;32.858;-116.858;2023-07-13T11:56:06;97921.84;;;27.17;43.06
53900;BME280;40509;32.858;-116.858;2023-07-13T11:58:32;97932.44;;;27.17;43.30
53900;BME280;40509;32.858;-116.858;2023-07-13T12:01:00;97929.53;;;27.12;42.83
53900;BME280;40509;32.858;-116.858;2023-07-13T12:03:31;97932.44;;;27.17;43.19
53900;BME280;40509;32.858;-116.858;2023-07-13T12:06:02;97929.19;;;27.15;43.29
53900;BME280;40509;32.858;-116.858;2023-07-13T12:08:37;97937.06;;;27.08;42.81
53900;BME280;40509;32.858;-116.858;2023-07-13T12:11:09;97933.66;;;27.14;42.96
53900;BME280;40509;32.858;-116.858;2023-07-13T12:13:40;97935.03;;;27.10;42.93
53900;BME280;40509;32.858;-116.858;2023-07-13T12:16:12;97939.72;;;27.08;42.91
53900;BME280;40509;32.858;-116.858;2023-07-13T12:18:41;97931.19;;;27.13;43.00
53900;BME280;40509;32.858;-116.858;2023-07-13T12:21:12;97936.06;;;27.09;42.93
53900;BME280;40509;32.858;-116.858;2023-07-13T12:23:44;97938.44;;;27.04;42.92
53900;BME280;40509;32.858;-116.858;2023-07-13T12:26:13;97943.81;;;27.11;43.34
53900;BME280;40509;32.858;-116.858;2023-07-13T12:28:45;97935.78;;;27.04;42.98
53900;BME280;40509;32.858;-116.858;2023-07-13T12:31:23;97946.81;;;27.07;43.40
53900;BME280;40509;32.858;-116.858;2023-07-13T12:34:06;97945.38;;;27.05;43.33
53900;BME280;40509;32.858;-116.858;2023-07-13T12:36:35;97942.34;;;27.08;43.12
53900;BME280;40509;32.858;-116.858;2023-07-13T12:39:19;97952.69;;;27.03;42.97
53900;BME280;40509;32.858;-116.858;2023-07-13T12:41:48;97951.03;;;27.02;43.17
53900;BME280;40509;32.858;-116.858;2023-07-13T12:44:16;97948.19;;;27.03;42.79
53900;BME280;40509;32.858;-116.858;2023-07-13T12:46:53;97952.41;;;26.98;43.06
53900;BME280;40509;32.858;-116.858;2023-07-13T12:49:22;97955.91;;;26.98;43.21
53900;BME280;40509;32.858;-116.858;2023-07-13T12:51:50;97953.25;;;26.98;43.06
53900;BME280;40509;32.858;-116.858;2023-07-13T12:54:18;97946.13;;;26.99;43.37
53900;BME280;40509;32.858;-116.858;2023-07-13T12:56:48;97951.16;;;26.93;43.09
53900;BME280;40509;32.858;-116.858;2023-07-13T12:59:17;97951.16;;;26.93;43.37
53900;BME280;40509;32.858;-116.858;2023-07-13T13:01:45;97957.09;;;26.96;42.74
53900;BME280;40509;32.858;-116.858;2023-07-13T13:04:12;97964.41;;;26.93;42.83
53900;BME280;40509;32.858;-116.858;2023-07-13T13:06:40;97965.41;;;26.92;43.10
53900;BME280;40509;32.858;-116.858;2023-07-13T13:09:11;97966.66;;;26.97;43.17
53900;BME280;40509;32.858;-116.858;2023-07-13T13:11:39;97964.22;;;26.95;43.42
53900;BME280;40509;32.858;-116.858;2023-07-13T13:14:06;97962.41;;;26.96;43.03
53900;BME280;40509;32.858;-116.858;2023-07-13T13:16:43;97962.75;;;26.92;42.99
53900;BME280;40509;32.858;-116.858;2023-07-13T13:19:30;97963.50;;;26.86;42.98
53900;BME280;40509;32.858;-116.858;2023-07-13T13:21:57;97956.94;;;26.82;42.58
53900;BME280;40509;32.858;-116.858;2023-07-13T13:24:27;97956.94;;;26.82;43.00